Time;durP1;ratioP1;P1;durP2;ratioP2;P2;SDS_P1;SDS_P2;PMS_P1;PMS_P2;Temp;Humidity;BMP_temperature;BMP_pressure;BME280_temperature;BME280_humidity;BME280_pressure;Samples;Min_cycle;Max_cycle;Signal;HPM_P1;HPM_P2
2021/01/23 00:00:23;;;;;;;2.10;1.45;;;1.60;99.90;;;;;;4950966;28;20050;-80
2021/01/23 00:02:49;;;;;;;2.03;1.55;;;1.70;99.90;;;;;;4971358;28;20042;-80
2021/01/23 00:05:14;;;;;;;2.05;1.50;;;1.60;99.90;;;;;;4978080;28;20030;-79
2021/01/23 00:07:40;;;;;;;3.28;1.80;;;1.70;99.90;;;;;;4937200;28;20045;-79
2021/01/23 00:10:06;;;;;;;2.63;1.95;;;1.70;99.90;;;;;;4905303;28;20048;-79
2021/01/23 00:12:32;;;;;;;2.45;2.00;;;1.70;99.90;;;;;;4959317;28;20339;-78
2021/01/23 00:14:57;;;;;;;2.65;1.80;;;1.60;99.90;;;;;;4932198;28;20045;-78
2021/01/23 00:17:23;;;;;;;3.17;1.90;;;1.60;99.90;;;;;;4966931;28;20042;-78
2021/01/23 00:19:48;;;;;;;2.35;1.73;;;1.60;99.90;;;;;;4957204;28;20042;-78
2021/01/23 00:22:14;;;;;;;2.47;1.52;;;1.60;99.90;;;;;;4978792;28;20431;-76
2021/01/23 00:24:40;;;;;;;2.83;1.90;;;1.60;99.90;;;;;;4931210;28;20046;-76
2021/01/23 00:27:05;;;;;;;2.50;1.92;;;1.60;99.90;;;;;;4957738;28;20094;-76
2021/01/23 00:29:31;;;;;;;3.13;1.90;;;1.60;99.90;;;;;;4967672;28;20034;-76
2021/01/23 00:31:57;;;;;;;5.05;2.72;;;1.70;99.90;;;;;;4956792;28;20038;-77
2021/01/23 00:34:23;;;;;;;4.00;2.65;;;1.70;99.90;;;;;;4941321;28;20117;-76
2021/01/23 00:36:48;;;;;;;4.97;2.85;;;1.70;99.90;;;;;;4908195;28;20045;-76
2021/01/23 00:39:14;;;;;;;6.53;3.60;;;1.70;99.90;;;;;;4956825;28;20042;-77
2021/01/23 00:41:39;;;;;;;5.45;3.05;;;1.70;99.90;;;;;;4931466;28;20038;-77
2021/01/23 00:44:05;;;;;;;6.13;3.28;;;1.70;99.90;;;;;;4927546;28;20038;-77
2021/01/23 00:46:31;;;;;;;7.43;4.13;;;1.70;99.90;;;;;;4940959;28;20561;-78
2021/01/23 00:48:56;;;;;;;7.47;4.00;;;1.70;99.90;;;;;;4956200;28;20070;-79
2021/01/23 00:51:22;;;;;;;8.48;4.28;;;1.70;99.90;;;;;;4941682;28;20511;-78
2021/01/23 00:53:47;;;;;;;6.55;3.58;;;1.70;99.90;;;;;;4931173;28;20404;-78
2021/01/23 00:56:13;;;;;;;7.30;4.57;;;1.70;99.90;;;;;;4961537;28;20117;-79
2021/01/23 00:58:39;;;;;;;7.50;4.40;;;1.70;99.90;;;;;;4952278;28;20031;-79
2021/01/23 01:01:05;;;;;;;7.88;4.53;;;1.80;99.90;;;;;;4920330;28;20039;-80
2021/01/23 01:03:31;;;;;;;8.85;3.78;;;1.80;99.90;;;;;;4948635;28;20403;-79
2021/01/23 01:05:57;;;;;;;7.28;4.60;;;1.80;99.90;;;;;;4961751;28;20075;-80
2021/01/23 01:08:22;;;;;;;9.07;5.03;;;1.80;99.90;;;;;;4970189;28;20062;-81
2021/01/23 01:10:48;;;;;;;9.55;4.70;;;1.80;99.90;;;;;;4949065;28;20399;-80
2021/01/23 01:13:14;;;;;;;12.70;6.35;;;1.90;99.90;;;;;;4980020;28;20035;-81
2021/01/23 01:15:41;;;;;;;11.82;5.72;;;1.90;99.90;;;;;;4949528;28;20670;-81
2021/01/23 01:18:07;;;;;;;13.85;6.85;;;1.80;99.90;;;;;;4961116;28;20050;-81
2021/01/23 01:20:33;;;;;;;12.55;6.82;;;1.80;99.90;;;;;;4979534;28;20093;-80
2021/01/23 01:22:58;;;;;;;13.18;7.22;;;1.80;99.90;;;;;;4936884;28;20035;-81
2021/01/23 01:25:24;;;;;;;13.23;7.55;;;1.90;99.90;;;;;;4952849;28;20058;-80
2021/01/23 01:27:50;;;;;;;11.80;6.97;;;1.80;99.90;;;;;;4993049;28;20038;-80
2021/01/23 01:30:16;;;;;;;13.70;7.60;;;1.80;99.90;;;;;;4966123;28;20046;-80
2021/01/23 01:32:42;;;;;;;16.77;8.95;;;1.80;99.90;;;;;;4956903;28;20730;-81
2021/01/23 01:35:08;;;;;;;15.63;7.90;;;1.80;99.90;;;;;;4975143;28;20069;-80
2021/01/23 01:37:33;;;;;;;12.70;7.57;;;1.80;99.90;;;;;;4969802;28;20753;-81
2021/01/23 01:39:59;;;;;;;15.48;9.10;;;1.80;99.90;;;;;;4974480;28;20093;-81
2021/01/23 01:42:25;;;;;;;14.27;8.15;;;1.80;99.90;;;;;;4938903;28;20041;-80
2021/01/23 01:44:50;;;;;;;13.15;7.40;;;1.70;99.90;;;;;;4962120;28;20039;-79
2021/01/23 01:47:17;;;;;;;14.88;8.07;;;1.70;99.90;;;;;;4962973;28;20046;-81
2021/01/23 01:49:43;;;;;;;8.13;5.40;;;1.80;99.90;;;;;;4940694;28;20034;-81
2021/01/23 01:52:09;;;;;;;9.70;5.22;;;1.80;99.90;;;;;;4968378;28;20037;-81
2021/01/23 01:54:36;;;;;;;9.13;5.47;;;1.80;99.90;;;;;;4943841;28;20061;-81
2021/01/23 01:57:02;;;;;;;16.40;4.80;;;1.80;99.90;;;;;;4946960;28;20051;-81
2021/01/23 01:59:27;;;;;;;5.97;3.80;;;1.90;99.90;;;;;;4941077;28;20061;-82
2021/01/23 02:02:03;;;;;;;7.75;4.38;;;1.90;99.90;;;;;;4954520;28;20073;-82
2021/01/23 02:04:38;;;;;;;6.50;3.75;;;1.90;99.90;;;;;;4946057;28;20806;-82
2021/01/23 02:07:11;;;;;;;7.05;3.80;;;1.90;99.90;;;;;;4927465;28;20031;-81
2021/01/23 02:09:55;;;;;;;5.87;3.73;;;2.00;99.90;;;;;;4930283;28;20055;-81
2021/01/23 02:12:39;;;;;;;7.20;3.50;;;2.00;99.90;;;;;;4934007;28;20313;-82
2021/01/23 02:15:15;;;;;;;4.88;3.20;;;2.00;99.90;;;;;;4954896;28;20567;-82
2021/01/23 02:17:46;;;;;;;5.97;3.60;;;1.90;99.90;;;;;;4957778;28;20061;-82
2021/01/23 02:20:31;;;;;;;4.30;2.75;;;1.90;99.90;;;;;;4977678;28;20449;-82
2021/01/23 02:23:16;;;;;;;5.47;3.45;;;2.00;99.90;;;;;;4975484;28;20037;-82
2021/01/23 02:26:11;;;;;;;5.32;3.13;;;2.00;99.90;;;;;;4980937;28;20565;-83
2021/01/23 02:28:54;;;;;;;5.32;3.30;;;2.00;99.90;;;;;;4984946;28;20655;-82
2021/01/23 02:31:22;;;;;;;6.13;4.10;;;2.00;99.90;;;;;;4967421;28;20034;-82
2021/01/23 02:33:52;;;;;;;7.32;4.10;;;2.00;99.90;;;;;;4976514;28;20030;-82
2021/01/23 02:36:21;;;;;;;5.30;3.17;;;2.00;99.90;;;;;;4974753;28;20037;-83
2021/01/23 02:38:48;;;;;;;5.80;3.80;;;2.00;99.90;;;;;;4978925;28;20062;-81
2021/01/23 02:41:15;;;;;;;4.43;3.08;;;2.00;99.90;;;;;;4973730;28;20062;-82
2021/01/23 02:43:45;;;;;;;5.95;2.92;;;2.00;99.90;;;;;;4970752;28;20038;-79
2021/01/23 02:46:12;;;;;;;4.50;2.83;;;2.00;99.90;;;;;;4971159;28;20046;-82
2021/01/23 02:48:38;;;;;;;4.40;2.67;;;2.00;99.90;;;;;;4989029;28;20039;-82
2021/01/23 02:51:08;;;;;;;4.13;2.47;;;2.00;99.90;;;;;;4986461;28;20089;-82
2021/01/23 02:53:35;;;;;;;3.40;2.33;;;2.10;99.90;;;;;;4975889;28;20050;-82
2021/01/23 02:56:08;;;;;;;4.15;2.72;;;2.10;99.90;;;;;;4971563;28;20042;-82
2021/01/23 02:58:35;;;;;;;3.73;2.37;;;2.10;99.90;;;;;;4992528;28;20034;-82
2021/01/23 03:01:02;;;;;;;2.95;2.05;;;2.00;99.90;;;;;;4986199;28;20035;-81
2021/01/23 03:03:30;;;;;;;3.15;1.92;;;2.10;99.90;;;;;;4978209;28;20034;-83
2021/01/23 03:05:55;;;;;;;2.65;1.80;;;2.10;99.90;;;;;;4973014;28;20744;-82
2021/01/23 03:08:21;;;;;;;3.25;1.98;;;2.10;99.90;;;;;;4975487;28;20046;-82
2021/01/23 03:10:47;;;;;;;2.60;1.70;;;2.10;99.90;;;;;;4971995;28;20470;-82
2021/01/23 03:13:14;;;;;;;4.15;2.10;;;2.10;99.90;;;;;;4974719;28;20058;-82
2021/01/23 03:15:43;;;;;;;3.38;2.40;;;2.10;99.90;;;;;;4974455;28;20045;-82
2021/01/23 03:18:09;;;;;;;2.40;1.77;;;2.10;99.90;;;;;;4973126;28;20039;-83
2021/01/23 03:20:35;;;;;;;3.38;2.25;;;2.10;99.90;;;;;;4973649;28;20593;-82
2021/01/23 03:23:01;;;;;;;3.60;1.65;;;2.10;99.90;;;;;;4971416;28;20118;-82
2021/01/23 03:25:27;;;;;;;2.55;1.98;;;2.10;99.90;;;;;;4975621;28;20062;-83
2021/01/23 03:27:56;;;;;;;2.30;1.60;;;2.10;99.90;;;;;;4971281;28;20535;-82
2021/01/23 03:30:22;;;;;;;3.25;2.00;;;2.10;99.90;;;;;;4970657;28;20049;-82
2021/01/23 03:32:49;;;;;;;3.05;2.08;;;2.20;99.90;;;;;;4971288;28;20035;-82
2021/01/23 03:35:16;;;;;;;3.47;2.17;;;2.20;99.90;;;;;;4972285;28;20042;-82
2021/01/23 03:37:41;;;;;;;3.38;2.15;;;2.20;99.90;;;;;;4970833;28;20046;-82
2021/01/23 03:40:08;;;;;;;3.97;2.35;;;2.20;99.90;;;;;;4970947;28;20466;-82
2021/01/23 03:42:34;;;;;;;3.38;2.03;;;2.20;99.90;;;;;;4972735;28;20038;-82
2021/01/23 03:45:00;;;;;;;6.25;2.63;;;2.30;99.90;;;;;;4973605;28;20030;-83
2021/01/23 03:47:26;;;;;;;11.70;3.20;;;2.30;99.90;;;;;;4971879;28;20107;-83
2021/01/23 03:49:52;;;;;;;4.28;2.53;;;2.30;99.90;;;;;;4973495;28;20035;-83
2021/01/23 03:52:17;;;;;;;5.13;3.00;;;2.40;99.90;;;;;;4973816;28;20046;-82
2021/01/23 03:54:43;;;;;;;4.63;2.70;;;2.30;99.90;;;;;;4972817;28;20463;-82
2021/01/23 03:57:09;;;;;;;7.18;3.45;;;2.40;99.90;;;;;;4973281;28;20039;-82
2021/01/23 03:59:34;;;;;;;4.45;2.90;;;2.40;99.90;;;;;;4972725;28;20665;-82
2021/01/23 04:02:00;;;;;;;4.70;2.80;;;2.40;99.90;;;;;;4992893;28;20042;-82
2021/01/23 04:04:26;;;;;;;3.83;2.50;;;2.50;99.90;;;;;;4977967;28;20304;-82
2021/01/23 04:06:51;;;;;;;6.78;2.22;;;2.50;99.90;;;;;;4975980;28;20447;-82
2021/01/23 04:09:17;;;;;;;5.07;2.22;;;2.50;99.90;;;;;;4977234;28;20043;-82
2021/01/23 04:11:43;;;;;;;4.68;2.67;;;2.50;99.90;;;;;;4977924;28;20062;-82
2021/01/23 04:14:08;;;;;;;4.03;2.10;;;2.50;99.90;;;;;;4976740;28;20038;-82
2021/01/23 04:16:34;;;;;;;3.78;1.98;;;2.50;99.90;;;;;;4977927;28;20045;-82
2021/01/23 04:18:59;;;;;;;5.82;2.40;;;2.50;99.90;;;;;;4975943;28;20560;-82
2021/01/23 04:21:25;;;;;;;3.85;2.00;;;2.50;99.90;;;;;;4974909;28;20398;-82
2021/01/23 04:23:50;;;;;;;5.28;2.42;;;2.60;99.90;;;;;;4978352;28;20038;-82
2021/01/23 04:26:16;;;;;;;4.22;2.40;;;2.60;99.90;;;;;;4976918;28;20046;-82
2021/01/23 04:28:41;;;;;;;5.25;2.63;;;2.60;99.90;;;;;;4976258;28;20038;-83
2021/01/23 04:31:08;;;;;;;3.70;2.00;;;2.50;99.90;;;;;;4975324;28;20462;-82
2021/01/23 04:33:34;;;;;;;4.97;2.28;;;2.60;99.90;;;;;;4976777;28;20036;-81
2021/01/23 04:36:01;;;;;;;3.80;2.08;;;2.60;99.90;;;;;;4975781;28;20035;-82
2021/01/23 04:38:28;;;;;;;4.38;2.15;;;2.60;99.90;;;;;;4977655;28;20042;-82
2021/01/23 04:40:55;;;;;;;3.25;2.08;;;2.60;99.90;;;;;;4976995;28;20052;-82
2021/01/23 04:43:22;;;;;;;4.25;1.88;;;2.60;99.90;;;;;;4978321;28;20078;-82
2021/01/23 04:45:48;;;;;;;2.47;1.60;;;2.60;99.90;;;;;;4978123;28;20126;-81
2021/01/23 04:48:18;;;;;;;2.97;1.65;;;2.60;99.90;;;;;;4974917;28;20038;-81
2021/01/23 04:50:45;;;;;;;4.40;2.28;;;2.60;99.90;;;;;;4974533;28;20054;-82
2021/01/23 04:53:11;;;;;;;2.80;1.90;;;2.60;99.90;;;;;;4975139;28;20086;-82
2021/01/23 04:55:37;;;;;;;3.20;1.98;;;2.60;99.90;;;;;;4973417;28;20133;-82
2021/01/23 04:58:03;;;;;;;6.45;2.08;;;2.50;99.90;;;;;;4973758;28;20034;-82
2021/01/23 05:00:29;;;;;;;2.38;1.70;;;2.50;99.90;;;;;;4972809;28;20126;-82
2021/01/23 05:03:02;;;;;;;3.13;1.90;;;2.50;99.90;;;;;;4973240;28;20035;-82
2021/01/23 05:05:29;;;;;;;5.40;2.65;;;2.50;99.90;;;;;;4972724;28;20034;-81
2021/01/23 05:08:05;;;;;;;4.72;1.98;;;2.50;99.90;;;;;;4975513;28;20093;-81
2021/01/23 05:10:31;;;;;;;4.63;1.83;;;2.50;99.90;;;;;;4986722;28;20046;-81
2021/01/23 05:12:58;;;;;;;1.80;1.45;;;2.50;99.90;;;;;;4970935;28;20035;-81
2021/01/23 05:15:32;;;;;;;6.20;1.90;;;2.50;99.90;;;;;;4970953;28;20034;-81
2021/01/23 05:18:01;;;;;;;7.40;2.17;;;2.50;99.90;;;;;;4969915;28;20031;-81
2021/01/23 05:20:30;;;;;;;3.10;1.88;;;2.50;99.90;;;;;;4976128;28;20136;-81
2021/01/23 05:22:56;;;;;;;2.75;2.03;;;2.50;99.90;;;;;;4968623;28;20046;-81
2021/01/23 05:25:28;;;;;;;4.82;2.30;;;2.50;99.90;;;;;;4970206;28;20035;-81
2021/01/23 05:27:54;;;;;;;4.55;1.77;;;2.50;99.90;;;;;;4981446;28;20042;-81
2021/01/23 05:30:20;;;;;;;3.08;2.22;;;2.50;99.90;;;;;;4968651;28;20042;-81
2021/01/23 05:33:07;;;;;;;3.38;2.22;;;2.60;99.90;;;;;;4984086;28;20062;-80
2021/01/23 05:35:33;;;;;;;4.93;2.30;;;2.60;99.90;;;;;;4969722;28;20435;-81
2021/01/23 05:37:59;;;;;;;2.50;1.88;;;2.60;99.90;;;;;;4969620;28;20046;-81
2021/01/23 05:40:30;;;;;;;3.03;1.60;;;2.60;99.90;;;;;;4973369;28;20039;-81
2021/01/23 05:42:56;;;;;;;2.20;1.50;;;2.60;99.90;;;;;;4970833;28;20034;-81
2021/01/23 05:45:22;;;;;;;7.00;1.83;;;2.60;99.90;;;;;;4973732;28;20031;-81
2021/01/23 05:47:47;;;;;;;3.78;2.00;;;2.60;99.90;;;;;;4969183;28;20101;-81
2021/01/23 05:50:13;;;;;;;4.68;2.10;;;2.60;99.90;;;;;;4974316;28;20031;-80
2021/01/23 05:52:39;;;;;;;4.63;2.15;;;2.50;99.90;;;;;;4976020;28;20038;-81
2021/01/23 05:55:05;;;;;;;3.55;1.95;;;2.50;99.90;;;;;;4975170;28;20114;-81
2021/01/23 05:57:33;;;;;;;5.72;2.33;;;2.50;99.90;;;;;;4970486;28;20555;-79
2021/01/23 05:59:59;;;;;;;5.88;2.47;;;2.50;99.90;;;;;;4978572;28;20043;-80
2021/01/23 06:02:26;;;;;;;4.38;2.10;;;2.40;99.90;;;;;;4986795;28;20043;-80
2021/01/23 06:04:52;;;;;;;5.95;2.65;;;2.40;99.90;;;;;;4974760;28;20058;-80
2021/01/23 06:07:41;;;;;;;3.50;2.30;;;2.40;99.90;;;;;;4971319;28;20559;-80
2021/01/23 06:10:30;;;;;;;3.78;2.45;;;2.40;99.90;;;;;;4982821;28;20100;-80
2021/01/23 06:12:56;;;;;;;6.40;2.63;;;2.40;99.90;;;;;;4961777;28;20052;-80
2021/01/23 06:15:35;;;;;;;5.45;2.08;;;2.40;99.90;;;;;;4971999;28;20043;-80
2021/01/23 06:18:05;;;;;;;3.42;2.15;;;2.40;99.90;;;;;;4969029;28;20039;-80
2021/01/23 06:20:40;;;;;;;8.20;2.25;;;2.40;99.90;;;;;;4969855;28;20409;-80
2021/01/23 06:23:06;;;;;;;3.63;2.15;;;2.40;99.90;;;;;;4968439;28;20058;-80
2021/01/23 06:25:50;;;;;;;8.02;2.38;;;2.40;99.90;;;;;;4974703;28;20038;-81
2021/01/23 06:28:16;;;;;;;4.75;1.90;;;2.50;99.90;;;;;;4950784;28;20063;-81
2021/01/23 06:30:42;;;;;;;4.22;1.75;;;2.50;99.90;;;;;;4955392;28;20377;-82
2021/01/23 06:33:22;;;;;;;3.92;2.53;;;2.60;99.90;;;;;;4952230;28;20110;-81
2021/01/23 06:36:20;;;;;;;9.38;2.50;;;2.50;99.90;;;;;;4948783;28;20046;-80
2021/01/23 06:39:09;;;;;;;6.00;2.25;;;2.50;99.90;;;;;;4966186;28;20551;-80
2021/01/23 06:41:36;;;;;;;5.05;2.13;;;2.40;99.90;;;;;;4962060;28;20039;-79
2021/01/23 06:44:11;;;;;;;3.15;2.00;;;2.40;99.90;;;;;;4949806;28;20062;-80
2021/01/23 06:46:55;;;;;;;5.43;2.45;;;2.40;99.90;;;;;;4966510;28;20093;-78
2021/01/23 06:49:22;;;;;;;7.57;2.35;;;2.40;99.90;;;;;;4954567;28;20043;-78
2021/01/23 06:51:47;;;;;;;4.45;2.40;;;2.50;99.90;;;;;;4954251;28;20125;-79
2021/01/23 06:54:21;;;;;;;5.47;2.53;;;2.50;99.90;;;;;;4952888;28;20129;-80
2021/01/23 06:56:52;;;;;;;6.03;2.57;;;2.50;99.90;;;;;;4952545;28;20130;-80
2021/01/23 06:59:28;;;;;;;7.50;2.72;;;2.40;99.90;;;;;;4968326;28;20314;-79
2021/01/23 07:01:57;;;;;;;6.10;2.70;;;2.40;99.90;;;;;;4959226;28;20034;-80
2021/01/23 07:04:24;;;;;;;8.80;2.97;;;2.40;99.90;;;;;;4953376;28;20070;-80
2021/01/23 07:06:51;;;;;;;6.32;2.53;;;2.40;99.90;;;;;;4951768;28;20035;-79
2021/01/23 07:09:17;;;;;;;3.25;2.20;;;2.40;99.90;;;;;;4952193;28;20031;-79
2021/01/23 07:11:42;;;;;;;4.45;2.65;;;2.30;99.90;;;;;;4949984;28;20442;-79
2021/01/23 07:14:08;;;;;;;5.60;3.20;;;2.30;99.90;;;;;;4954438;28;20071;-81
2021/01/23 07:16:36;;;;;;;5.07;2.72;;;2.30;99.90;;;;;;4951901;28;20031;-80
2021/01/23 07:19:05;;;;;;;4.97;2.88;;;2.40;99.90;;;;;;4952971;28;20043;-78
2021/01/23 07:21:38;;;;;;;5.45;2.92;;;2.40;99.90;;;;;;4952759;28;20031;-79
2021/01/23 07:24:04;;;;;;;4.90;2.67;;;2.40;99.90;;;;;;4954019;28;20054;-79
2021/01/23 07:26:33;;;;;;;8.43;3.00;;;2.40;99.90;;;;;;4950667;28;20032;-78
2021/01/23 07:28:59;;;;;;;5.72;2.90;;;2.50;99.90;;;;;;4968621;28;20039;-79
2021/01/23 07:31:32;;;;;;;5.07;2.85;;;2.40;99.90;;;;;;4952648;28;20062;-79
2021/01/23 07:34:00;;;;;;;5.03;2.97;;;2.50;99.90;;;;;;4953409;28;20054;-79
2021/01/23 07:36:43;;;;;;;5.20;3.15;;;2.50;99.90;;;;;;4956681;28;20042;-79
2021/01/23 07:39:15;;;;;;;15.45;2.95;;;2.60;99.90;;;;;;4954915;28;20035;-79
2021/01/23 07:41:48;;;;;;;4.25;2.88;;;2.60;99.90;;;;;;4957460;28;20067;-81
2021/01/23 07:44:15;;;;;;;4.82;2.97;;;2.60;99.90;;;;;;4974319;28;20858;-81
2021/01/23 07:46:43;;;;;;;10.88;3.30;;;2.60;99.90;;;;;;4978300;28;20225;-83
2021/01/23 07:49:18;;;;;;;5.38;3.08;;;2.50;99.90;;;;;;4978637;28;20530;-82
2021/01/23 07:51:44;;;;;;;7.03;3.75;;;2.60;99.90;;;;;;4993430;28;20555;-83
2021/01/23 07:54:11;;;;;;;7.90;3.20;;;2.60;99.90;;;;;;4973805;28;20042;-81
2021/01/23 07:56:38;;;;;;;8.00;3.72;;;2.60;99.90;;;;;;4974068;28;20054;-82
2021/01/23 07:59:04;;;;;;;6.43;3.05;;;2.70;99.90;;;;;;4973099;28;20097;-82
2021/01/23 08:01:30;;;;;;;5.78;2.97;;;2.70;99.90;;;;;;4973523;28;20049;-82
2021/01/23 08:03:56;;;;;;;5.43;3.42;;;2.80;99.90;;;;;;4973431;28;20038;-83
2021/01/23 08:06:23;;;;;;;5.25;3.20;;;2.80;99.90;;;;;;4972305;28;20053;-84
2021/01/23 08:08:49;;;;;;;8.40;3.78;;;2.80;99.90;;;;;;4970490;28;20039;-82
2021/01/23 08:11:40;;;;;;;7.03;3.58;;;2.90;99.90;;;;;;4972849;28;20547;-84
2021/01/23 08:14:13;;;;;;;9.30;3.13;;;2.90;99.90;;;;;;4968458;28;20049;-83
2021/01/23 08:16:56;;;;;;;6.30;3.60;;;2.90;99.90;;;;;;4985458;28;20551;-82
2021/01/23 08:19:22;;;;;;;7.65;3.78;;;3.00;99.90;;;;;;4969497;28;20109;-81
2021/01/23 08:22:06;;;;;;;7.75;4.00;;;3.10;99.90;;;;;;4977009;28;20046;-83
2021/01/23 08:24:33;;;;;;;6.90;3.50;;;3.10;99.90;;;;;;4971499;28;20110;-82
2021/01/23 08:27:14;;;;;;;8.02;3.75;;;3.10;99.90;;;;;;4972475;28;20066;-83
2021/01/23 08:29:50;;;;;;;10.65;4.25;;;3.00;99.90;;;;;;4986512;28;20065;-84
2021/01/23 08:32:16;;;;;;;7.13;4.45;;;3.10;99.90;;;;;;4972839;28;20122;-86
2021/01/23 08:34:43;;;;;;;8.95;4.57;;;3.10;99.90;;;;;;4975140;28;20496;-84
2021/01/23 08:37:09;;;;;;;7.07;4.03;;;3.20;99.90;;;;;;4970187;28;20042;-84
2021/01/23 08:39:45;;;;;;;10.75;4.68;;;3.20;99.90;;;;;;4975708;28;20027;-84
2021/01/23 08:42:11;;;;;;;6.30;3.75;;;3.30;99.90;;;;;;4967176;28;20055;-83
2021/01/23 08:44:37;;;;;;;11.55;4.18;;;3.30;99.90;;;;;;4952715;28;20122;-85
2021/01/23 08:47:03;;;;;;;10.68;4.10;;;3.40;99.90;;;;;;4968290;28;20042;-83
2021/01/23 08:49:30;;;;;;;8.18;3.95;;;3.50;99.90;;;;;;4967577;28;20034;-84
2021/01/23 08:51:56;;;;;;;8.65;4.05;;;3.50;99.90;;;;;;4965176;28;20024;-84
2021/01/23 08:54:21;;;;;;;8.30;4.43;;;3.50;99.90;;;;;;4955550;28;20085;-83
2021/01/23 08:56:47;;;;;;;7.20;4.07;;;3.60;99.90;;;;;;4973496;28;20054;-83
2021/01/23 08:59:13;;;;;;;10.55;4.20;;;3.70;99.90;;;;;;4967640;28;20492;-85
2021/01/23 09:01:39;;;;;;;11.10;4.00;;;3.80;99.90;;;;;;4970184;28;20098;-84
2021/01/23 09:04:05;;;;;;;11.57;3.85;;;3.80;99.90;;;;;;4951613;28;21080;-84
2021/01/23 09:06:30;;;;;;;9.35;4.10;;;3.70;99.90;;;;;;4956983;28;20507;-83
2021/01/23 09:08:56;;;;;;;8.57;4.18;;;3.80;99.90;;;;;;4960357;28;20531;-83
2021/01/23 09:11:21;;;;;;;9.05;3.67;;;3.90;99.90;;;;;;4963002;28;20412;-83
2021/01/23 09:13:47;;;;;;;13.07;4.20;;;3.90;99.90;;;;;;4956409;28;20058;-79
2021/01/23 09:16:13;;;;;;;8.00;4.03;;;3.90;99.90;;;;;;4974681;28;20057;-82
2021/01/23 09:18:38;;;;;;;8.40;3.80;;;4.00;99.90;;;;;;4957787;28;20043;-83
2021/01/23 09:21:04;;;;;;;6.70;3.63;;;4.10;99.90;;;;;;4985037;22;20071;-79
2021/01/23 09:23:30;;;;;;;7.90;3.65;;;4.10;99.90;;;;;;4955842;28;20074;-79
2021/01/23 09:25:55;;;;;;;8.23;3.90;;;4.10;99.90;;;;;;4956699;28;20034;-80
2021/01/23 09:28:23;;;;;;;9.88;3.85;;;4.20;99.90;;;;;;4971750;28;20043;-80
2021/01/23 09:30:48;;;;;;;4.88;3.33;;;4.30;99.90;;;;;;4960161;28;20055;-80
2021/01/23 09:33:14;;;;;;;13.27;4.10;;;4.30;99.90;;;;;;4957724;28;20067;-78
2021/01/23 09:35:39;;;;;;;9.40;4.68;;;4.30;99.90;;;;;;4958248;28;20106;-78
2021/01/23 09:38:05;;;;;;;6.57;3.72;;;4.50;99.90;;;;;;4958609;28;20797;-80
2021/01/23 09:40:30;;;;;;;9.50;3.33;;;4.50;99.90;;;;;;4958372;28;20041;-79
2021/01/23 09:42:56;;;;;;;6.72;3.83;;;4.50;99.90;;;;;;4957621;28;20126;-77
2021/01/23 09:45:21;;;;;;;7.85;3.25;;;4.50;99.90;;;;;;4959217;28;20098;-81
2021/01/23 09:47:47;;;;;;;15.85;4.55;;;4.50;99.90;;;;;;4960644;28;20101;-79
2021/01/23 09:50:13;;;;;;;6.43;3.20;;;4.50;99.90;;;;;;4956701;28;20082;-78
2021/01/23 09:52:38;;;;;;;6.05;3.53;;;4.60;99.90;;;;;;4957151;28;20066;-77
2021/01/23 09:55:05;;;;;;;8.38;3.70;;;4.70;99.90;;;;;;4955501;28;20061;-80
2021/01/23 09:57:33;;;;;;;7.38;3.92;;;4.90;99.90;;;;;;4957904;28;20768;-84
2021/01/23 10:00:02;;;;;;;4.65;3.10;;;4.80;99.90;;;;;;4960764;28;20118;-81
2021/01/23 10:02:33;;;;;;;10.40;3.25;;;5.00;99.90;;;;;;4973785;28;20034;-82
2021/01/23 10:05:08;;;;;;;7.43;3.13;;;5.00;99.90;;;;;;4970658;28;20114;-83
2021/01/23 10:07:34;;;;;;;9.70;3.42;;;5.10;99.90;;;;;;4962981;28;20348;-83
2021/01/23 10:10:00;;;;;;;6.18;3.15;;;5.20;99.90;;;;;;4964898;28;20065;-80
2021/01/23 10:12:29;;;;;;;7.22;3.38;;;5.00;99.90;;;;;;4972835;28;20323;-83
2021/01/23 10:14:55;;;;;;;9.23;3.17;;;5.10;99.90;;;;;;4967447;28;20055;-81
2021/01/23 10:17:22;;;;;;;5.43;2.92;;;5.20;99.90;;;;;;4961181;28;20058;-84
2021/01/23 10:19:50;;;;;;;9.23;2.70;;;5.10;99.90;;;;;;4946854;28;20843;-82
2021/01/23 10:22:16;;;;;;;4.38;2.63;;;5.10;99.90;;;;;;4973432;28;20055;-78
2021/01/23 10:24:42;;;;;;;5.20;3.00;;;5.10;99.90;;;;;;4963209;28;20073;-85
2021/01/23 10:27:08;;;;;;;5.35;3.28;;;5.10;99.90;;;;;;4961116;28;20042;-82
2021/01/23 10:29:34;;;;;;;6.20;3.33;;;5.30;99.90;;;;;;4963196;28;20039;-85
2021/01/23 10:32:00;;;;;;;7.05;2.38;;;5.20;99.90;;;;;;4981601;28;20146;-81
2021/01/23 10:34:29;;;;;;;9.52;2.72;;;5.30;99.90;;;;;;4962655;28;20042;-85
2021/01/23 10:36:55;;;;;;;4.38;2.72;;;5.20;99.90;;;;;;4966134;28;20036;-87
2021/01/23 10:39:21;;;;;;;7.85;2.63;;;5.30;99.90;;;;;;4969072;28;20041;-88
2021/01/23 10:41:47;;;;;;;7.53;2.63;;;5.30;99.90;;;;;;4975255;28;20043;-88
2021/01/23 10:44:12;;;;;;;8.80;2.83;;;5.20;99.90;;;;;;4982414;28;20081;-84
2021/01/23 10:46:38;;;;;;;7.75;2.70;;;5.10;99.90;;;;;;4964599;28;20069;-85
2021/01/23 10:49:26;;;;;;;5.88;2.15;;;5.20;99.90;;;;;;4963966;28;20123;-82
2021/01/23 10:51:51;;;;;;;3.60;2.40;;;5.20;99.90;;;;;;4963116;28;20042;-83
2021/01/23 10:54:17;;;;;;;6.45;2.38;;;5.10;99.90;;;;;;4961738;28;20036;-80
2021/01/23 10:56:43;;;;;;;5.75;2.10;;;5.20;99.90;;;;;;4963457;28;20065;-84
2021/01/23 10:59:09;;;;;;;4.88;1.95;;;5.30;99.90;;;;;;4962648;28;20039;-82
2021/01/23 11:01:34;;;;;;;4.13;2.10;;;5.20;99.90;;;;;;4969431;28;20041;-82
2021/01/23 11:04:00;;;;;;;4.30;2.00;;;5.30;99.90;;;;;;4964101;28;20071;-82
2021/01/23 11:06:26;;;;;;;6.93;2.28;;;5.40;99.90;;;;;;4979520;28;20039;-82
2021/01/23 11:08:51;;;;;;;7.63;2.58;;;5.30;99.90;;;;;;4964269;28;20113;-83
2021/01/23 11:11:17;;;;;;;3.45;1.88;;;5.50;99.90;;;;;;4964789;28;20053;-82
2021/01/23 11:13:43;;;;;;;6.63;2.30;;;5.50;99.90;;;;;;4967684;28;20082;-81
2021/01/23 11:16:09;;;;;;;7.43;2.45;;;5.30;99.90;;;;;;4966281;28;20054;-84
2021/01/23 11:18:36;;;;;;;5.50;2.92;;;5.40;99.90;;;;;;4965100;28;20067;-82
2021/01/23 11:21:05;;;;;;;7.70;2.35;;;5.40;99.90;;;;;;4963979;28;20035;-81
2021/01/23 11:23:31;;;;;;;5.88;2.20;;;5.50;99.90;;;;;;4968228;28;20852;-82
2021/01/23 11:25:56;;;;;;;3.78;2.00;;;5.60;99.90;;;;;;4969185;28;20043;-82
2021/01/23 11:28:22;;;;;;;4.72;1.88;;;5.60;99.90;;;;;;4967208;28;20039;-83
2021/01/23 11:30:49;;;;;;;3.67;1.75;;;5.70;99.90;;;;;;4966026;28;20046;-85
2021/01/23 11:33:15;;;;;;;10.32;1.80;;;5.80;99.90;;;;;;4967849;28;20034;-83
2021/01/23 11:35:41;;;;;;;4.43;1.98;;;5.70;99.90;;;;;;4971077;28;20039;-83
2021/01/23 11:38:06;;;;;;;8.52;2.33;;;5.60;99.90;;;;;;4983922;28;20049;-82
2021/01/23 11:40:32;;;;;;;10.93;1.83;;;5.70;99.90;;;;;;4968984;28;20044;-83
2021/01/23 11:42:58;;;;;;;4.35;1.83;;;5.70;99.90;;;;;;4969840;28;20078;-85
2021/01/23 11:45:23;;;;;;;5.18;2.05;;;5.70;99.90;;;;;;4968985;28;20047;-82
2021/01/23 11:47:49;;;;;;;4.07;1.98;;;5.80;99.90;;;;;;4969691;28;20131;-83
2021/01/23 11:50:18;;;;;;;13.75;1.95;;;5.80;99.90;;;;;;4966901;28;20031;-85
2021/01/23 11:52:46;;;;;;;5.25;2.47;;;5.80;99.90;;;;;;4962716;28;20745;-82
2021/01/23 11:55:12;;;;;;;5.75;1.50;;;5.90;99.90;;;;;;4977492;28;20039;-80
2021/01/23 11:57:37;;;;;;;5.55;1.85;;;5.80;98.90;;;;;;4957980;28;20031;-86
2021/01/23 12:00:05;;;;;;;2.75;1.30;;;5.80;98.00;;;;;;4961093;28;20487;-82
2021/01/23 12:02:31;;;;;;;7.22;1.70;;;5.80;97.60;;;;;;4974223;28;20050;-81
2021/01/23 12:04:56;;;;;;;4.32;1.30;;;5.80;97.60;;;;;;4973168;28;20106;-80
2021/01/23 12:07:22;;;;;;;5.43;1.75;;;5.70;96.30;;;;;;4957657;28;20034;-81
2021/01/23 12:09:47;;;;;;;8.00;1.98;;;5.60;95.40;;;;;;4960597;28;20060;-82
2021/01/23 12:12:14;;;;;;;9.00;1.40;;;5.70;96.20;;;;;;4959274;28;20702;-84
2021/01/23 12:14:40;;;;;;;15.57;1.60;;;5.80;96.50;;;;;;4961174;28;20120;-83
2021/01/23 12:17:06;;;;;;;4.07;2.20;;;5.80;95.90;;;;;;4964938;28;20039;-81
2021/01/23 12:19:31;;;;;;;1.30;1.08;;;5.70;95.80;;;;;;4955724;28;20067;-81
2021/01/23 12:21:57;;;;;;;3.80;1.60;;;5.70;94.70;;;;;;4955873;28;20054;-79
2021/01/23 12:24:24;;;;;;;4.38;1.70;;;5.80;95.50;;;;;;4968334;28;20035;-80
2021/01/23 12:26:49;;;;;;;9.73;1.92;;;5.80;94.80;;;;;;4992073;28;20057;-81
2021/01/23 12:29:15;;;;;;;6.10;1.70;;;5.80;95.10;;;;;;4973735;28;20109;-79
2021/01/23 12:31:41;;;;;;;8.27;1.52;;;5.90;94.80;;;;;;4973799;28;20730;-80
2021/01/23 12:34:06;;;;;;;8.27;2.50;;;5.90;94.10;;;;;;4954828;28;20653;-81
2021/01/23 12:36:32;;;;;;;5.70;1.75;;;6.00;94.30;;;;;;4956919;28;20050;-83
2021/01/23 12:38:58;;;;;;;3.25;1.42;;;6.00;92.70;;;;;;4957474;28;20062;-81
2021/01/23 12:41:23;;;;;;;4.45;1.60;;;6.20;93.70;;;;;;4958057;28;20038;-81
2021/01/23 12:43:49;;;;;;;5.70;1.30;;;6.20;92.40;;;;;;4959842;28;20043;-82
2021/01/23 12:46:15;;;;;;;6.53;1.67;;;6.10;90.90;;;;;;4961204;28;20087;-81
2021/01/23 12:48:41;;;;;;;1.17;0.82;;;6.00;90.50;;;;;;4957797;28;20039;-81
2021/01/23 12:51:06;;;;;;;6.22;1.40;;;6.00;89.70;;;;;;4962261;28;20605;-84
2021/01/23 12:53:32;;;;;;;6.25;1.50;;;6.00;89.70;;;;;;4964068;28;20044;-86
2021/01/23 12:55:57;;;;;;;7.10;1.50;;;6.00;91.10;;;;;;4960668;28;20046;-86
2021/01/23 12:58:23;;;;;;;3.35;1.55;;;5.90;89.20;;;;;;4948086;28;20040;-86